createdAt,value
2018-11-14T00:00:31.950Z,92.20
2018-11-14T00:03:01.860Z,91.80
2018-11-14T00:05:30.521Z,91.70
2018-11-14T00:07:59.271Z,91.70
2018-11-14T00:10:27.893Z,91.80
2018-11-14T00:12:56.509Z,92.10
2018-11-14T00:15:26.120Z,92.10
2018-11-14T00:17:54.887Z,92.00
2018-11-14T00:20:23.671Z,92.30
2018-11-14T00:22:52.572Z,92.00
2018-11-14T00:25:21.207Z,92.10
2018-11-14T00:27:49.933Z,91.70
2018-11-14T00:30:22.879Z,91.60
2018-11-14T00:32:51.550Z,91.50
2018-11-14T00:35:20.182Z,92.00
2018-11-14T00:37:49.296Z,91.70
2018-11-14T00:40:18.922Z,91.40
2018-11-14T00:42:48.003Z,91.40
2018-11-14T00:45:19.245Z,91.50
2018-11-14T00:47:48.647Z,91.40
2018-11-14T00:50:18.022Z,91.40
2018-11-14T00:52:46.936Z,91.20
2018-11-14T00:55:17.626Z,91.40
2018-11-14T00:57:47.293Z,91.30
2018-11-14T01:00:18.552Z,91.40
2018-11-14T01:02:47.320Z,91.50
2018-11-14T01:05:17.045Z,91.50
2018-11-14T01:07:45.771Z,91.50
2018-11-14T01:10:16.304Z,91.30
2018-11-14T01:12:45.625Z,91.30
2018-11-14T01:15:16.375Z,91.70
2018-11-14T01:17:45.020Z,91.40
2018-11-14T01:20:15.369Z,91.60
2018-11-14T01:22:44.560Z,91.50
2018-11-14T01:25:14.473Z,91.50
2018-11-14T01:27:44.007Z,91.50
2018-11-14T01:30:15.207Z,91.80
2018-11-14T01:32:44.857Z,91.50
2018-11-14T01:35:13.676Z,91.60
2018-11-14T01:37:42.344Z,91.50
2018-11-14T01:40:16.232Z,91.50
2018-11-14T01:42:46.949Z,91.70
2018-11-14T01:45:15.616Z,91.50
2018-11-14T01:47:44.354Z,91.50
2018-11-14T01:50:13.011Z,91.80
2018-11-14T01:52:41.651Z,92.00
2018-11-14T01:55:12.382Z,92.10
2018-11-14T01:57:41.028Z,92.50
2018-11-14T02:00:12.428Z,92.60
2018-11-14T02:02:41.171Z,93.00
2018-11-14T02:05:10.315Z,92.90
2018-11-14T02:07:38.947Z,93.00
2018-11-14T02:10:11.229Z,93.20
2018-11-14T02:12:40.487Z,93.50
2018-11-14T02:15:12.248Z,94.10
2018-11-14T02:17:41.755Z,94.40
2018-11-14T02:20:11.051Z,94.20
2018-11-14T02:22:40.035Z,94.60
2018-11-14T02:25:09.538Z,94.70
2018-11-14T02:27:38.147Z,94.30
2018-11-14T02:30:11.366Z,94.70
2018-11-14T02:32:40.132Z,95.20
2018-11-14T02:35:09.116Z,96.10
2018-11-14T02:37:38.197Z,96.60
2018-11-14T02:40:09.013Z,96.70
2018-11-14T02:42:38.668Z,97.10
2018-11-14T02:45:07.589Z,97.00
2018-11-14T02:47:36.219Z,97.00
2018-11-14T02:50:04.963Z,97.10
2018-11-14T02:52:33.607Z,96.70
2018-11-14T02:55:02.243Z,96.50
2018-11-14T02:57:30.893Z,96.70
2018-11-14T02:59:59.527Z,96.60
2018-11-14T03:02:28.165Z,96.80
2018-11-14T03:04:56.842Z,96.80
2018-11-14T03:07:25.461Z,96.60
2018-11-14T03:09:54.123Z,96.70
2018-11-14T03:12:22.881Z,96.80
2018-11-14T03:14:51.544Z,96.60
2018-11-14T03:17:20.187Z,96.40
2018-11-14T03:19:48.876Z,96.30
2018-11-14T03:22:17.505Z,96.10
2018-11-14T03:24:46.123Z,95.40
2018-11-14T03:27:14.837Z,95.80
2018-11-14T03:29:43.475Z,95.80
2018-11-14T03:32:12.133Z,95.90
2018-11-14T03:34:40.821Z,95.80
2018-11-14T03:37:09.445Z,95.80
2018-11-14T03:39:38.093Z,95.80
2018-11-14T03:42:06.783Z,95.70
2018-11-14T03:44:35.388Z,95.40
2018-11-14T03:47:04.079Z,95.50
2018-11-14T03:49:32.738Z,94.90
2018-11-14T03:52:01.381Z,94.60
2018-11-14T03:54:29.996Z,95.30
2018-11-14T03:56:58.693Z,95.40
2018-11-14T03:59:27.310Z,95.10
2018-11-14T04:01:55.979Z,95.10
2018-11-14T04:04:24.619Z,94.70
2018-11-14T04:06:53.310Z,94.80
2018-11-14T04:09:22.079Z,94.80
2018-11-14T04:11:50.686Z,94.60
2018-11-14T04:14:19.421Z,94.80
2018-11-14T04:16:48.075Z,94.40
2018-11-14T04:19:16.738Z,94.10
2018-11-14T04:21:45.420Z,94.30
2018-11-14T04:24:14.058Z,94.20
2018-11-14T04:26:42.771Z,94.50
2018-11-14T04:29:11.450Z,94.30
2018-11-14T04:31:40.090Z,94.10
2018-11-14T04:34:11.458Z,93.90
2018-11-14T04:36:40.148Z,93.80
2018-11-14T04:39:09.873Z,93.80
2018-11-14T04:41:38.527Z,93.50
2018-11-14T04:44:07.483Z,93.80
2018-11-14T04:46:36.188Z,93.70
2018-11-14T04:49:05.032Z,93.90
2018-11-14T04:51:33.700Z,93.60
2018-11-14T04:54:02.322Z,93.60
2018-11-14T04:56:31.010Z,93.30
2018-11-14T04:58:59.684Z,93.30
2018-11-14T05:01:28.304Z,93.20
2018-11-14T05:03:56.990Z,93.60
2018-11-14T05:06:25.690Z,93.10
2018-11-14T05:08:54.377Z,93.40
2018-11-14T05:11:23.085Z,93.30
2018-11-14T05:13:52.076Z,92.60
2018-11-14T05:16:21.007Z,92.70
2018-11-14T05:18:49.706Z,92.50
2018-11-14T05:21:18.358Z,92.90
2018-11-14T05:23:46.972Z,92.60
2018-11-14T05:26:15.665Z,92.50
2018-11-14T05:28:44.286Z,92.60
2018-11-14T05:31:12.978Z,92.30
2018-11-14T05:33:41.622Z,92.10
2018-11-14T05:36:10.260Z,92.50
2018-11-14T05:38:38.904Z,92.70
2018-11-14T05:41:07.549Z,92.40
2018-11-14T05:43:36.185Z,92.00
2018-11-14T05:46:05.208Z,92.20
2018-11-14T05:48:33.875Z,92.30
2018-11-14T05:51:02.681Z,92.20
2018-11-14T05:53:31.377Z,92.20
2018-11-14T05:56:00.069Z,92.10
2018-11-14T05:58:28.745Z,91.80
2018-11-14T06:00:57.469Z,91.90
2018-11-14T06:03:26.125Z,92.50
2018-11-14T06:05:54.733Z,92.30
2018-11-14T06:08:23.369Z,92.00
2018-11-14T06:10:52.213Z,92.20
2018-11-14T06:13:20.881Z,91.80
2018-11-14T06:15:49.569Z,91.90
2018-11-14T06:18:18.249Z,92.20
2018-11-14T06:20:46.883Z,91.90
2018-11-14T06:23:15.551Z,91.60
2018-11-14T06:25:44.329Z,92.10
2018-11-14T06:28:14.583Z,92.00
2018-11-14T06:30:43.297Z,91.90
2018-11-14T06:33:12.681Z,92.40
2018-11-14T06:35:41.472Z,93.30
2018-11-14T06:38:10.226Z,93.10
2018-11-14T06:40:39.690Z,92.90
2018-11-14T06:43:09.278Z,92.60
2018-11-14T06:45:38.161Z,92.80
2018-11-14T06:48:07.109Z,92.70
2018-11-14T06:50:35.915Z,92.60
2018-11-14T06:53:06.030Z,93.00
2018-11-14T06:55:34.819Z,92.80
2018-11-14T06:58:03.626Z,92.30
2018-11-14T07:00:33.450Z,92.30
2018-11-14T07:03:03.483Z,92.30
2018-11-14T07:05:32.397Z,92.60
2018-11-14T07:08:01.163Z,92.60
2018-11-14T07:10:32.099Z,92.20
2018-11-14T07:13:06.977Z,92.40
2018-11-14T07:15:36.505Z,92.60
2018-11-14T07:18:06.479Z,92.30
2018-11-14T07:20:37.687Z,92.40
2018-11-14T07:23:06.674Z,92.00
2018-11-14T07:25:35.408Z,92.20
2018-11-14T07:28:04.320Z,91.50
2018-11-14T07:30:34.132Z,91.60
2018-11-14T07:33:09.208Z,91.20
2018-11-14T07:35:38.175Z,90.90
2018-11-14T07:38:43.172Z,91.20
2018-11-14T07:41:15.352Z,90.90
2018-11-14T07:43:44.748Z,90.90
2018-11-14T07:46:14.670Z,91.10
2018-11-14T07:48:44.344Z,91.10
2018-11-14T07:51:13.031Z,90.70
2018-11-14T07:53:41.823Z,90.70
2018-11-14T07:56:10.502Z,91.20
2018-11-14T07:58:40.734Z,90.40
2018-11-14T08:01:10.659Z,90.40
2018-11-14T08:03:40.624Z,90.40
2018-11-14T08:06:09.419Z,90.70
2018-11-14T08:08:38.117Z,90.70
2018-11-14T08:11:07.615Z,90.20
2018-11-14T08:13:37.620Z,89.90
2018-11-14T08:16:09.581Z,90.10
2018-11-14T08:18:41.913Z,90.30
2018-11-14T08:21:14.823Z,89.60
2018-11-14T08:23:48.252Z,88.90
2018-11-14T08:26:18.127Z,90.40
2018-11-14T08:28:49.053Z,90.90
2018-11-14T08:31:19.627Z,91.60
2018-11-14T08:33:49.156Z,90.90
2018-11-14T08:36:20.969Z,90.50
2018-11-14T08:38:51.209Z,90.40
2018-11-14T08:41:21.186Z,90.60
2018-11-14T08:43:50.724Z,90.80
2018-11-14T08:46:20.473Z,91.20
2018-11-14T08:48:51.424Z,91.20
2018-11-14T08:51:22.214Z,90.40
2018-11-14T08:53:51.653Z,90.50
2018-11-14T08:56:25.479Z,90.50
2018-11-14T08:58:54.182Z,90.20
2018-11-14T09:01:23.104Z,90.20
2018-11-14T09:04:15.402Z,90.10
2018-11-14T09:06:44.940Z,88.90
2018-11-14T09:09:14.743Z,88.60
2018-11-14T09:11:45.757Z,88.70
2018-11-14T09:14:16.268Z,88.70
2018-11-14T09:16:46.117Z,88.50
2018-11-14T09:19:16.854Z,87.90
2018-11-14T09:21:45.836Z,88.50
2018-11-14T09:24:17.952Z,87.80
2018-11-14T09:26:48.454Z,87.00
2018-11-14T09:29:17.284Z,88.00
2018-11-14T09:31:49.446Z,88.30
2018-11-14T09:34:22.893Z,85.80
2018-11-14T09:36:52.766Z,85.50
2018-11-14T09:39:22.773Z,86.30
2018-11-14T09:41:53.966Z,85.10
2018-11-14T09:44:24.179Z,86.40
2018-11-14T09:46:53.102Z,86.20
2018-11-14T09:49:22.211Z,86.40
2018-11-14T09:51:53.142Z,86.20
2018-11-14T09:54:22.301Z,85.60
2018-11-14T09:56:53.514Z,85.60
2018-11-14T09:59:22.584Z,84.50
2018-11-14T10:01:55.526Z,85.20
2018-11-14T10:04:26.809Z,86.30
2018-11-14T10:06:56.149Z,86.40
2018-11-14T10:09:26.522Z,85.50
2018-11-14T10:11:56.912Z,86.60
2018-11-14T10:14:26.713Z,85.60
2018-11-14T10:16:57.400Z,85.00
2018-11-14T10:19:28.616Z,85.10
2018-11-14T10:21:58.210Z,85.80
2018-11-14T10:24:27.856Z,85.50
2018-11-14T10:26:58.736Z,86.30
2018-11-14T10:29:32.544Z,86.80
2018-11-14T10:32:03.800Z,87.10
2018-11-14T10:34:33.452Z,87.50
2018-11-14T10:37:07.114Z,88.60
2018-11-14T10:39:36.729Z,89.70
2018-11-14T10:42:07.016Z,90.30
2018-11-14T10:47:14.062Z,90.60
2018-11-14T10:49:43.938Z,90.60
2018-11-14T10:52:13.494Z,90.40
2018-11-14T10:54:56.446Z,90.90
2018-11-14T10:57:25.511Z,91.20
2018-11-14T10:59:57.820Z,91.30
2018-11-14T11:02:34.958Z,91.20
2018-11-14T11:05:09.872Z,91.40
2018-11-14T11:07:44.976Z,90.90
2018-11-14T11:10:18.974Z,91.30
2018-11-14T11:12:54.830Z,91.20
2018-11-14T11:15:32.814Z,91.50
2018-11-14T11:18:07.194Z,91.00
2018-11-14T11:20:38.496Z,90.10
2018-11-14T11:23:09.238Z,90.20
2018-11-14T11:25:41.760Z,90.40
2018-11-14T11:28:12.700Z,90.70
2018-11-14T11:30:43.830Z,90.30
2018-11-14T11:33:12.908Z,90.50
2018-11-14T11:35:43.152Z,90.60
2018-11-14T11:38:15.468Z,90.10
2018-11-14T11:40:44.940Z,90.10
2018-11-14T11:43:16.752Z,90.10
2018-11-14T11:45:49.078Z,89.00
2018-11-14T11:48:20.993Z,88.50
2018-11-14T11:50:55.455Z,89.80
2018-11-14T11:53:25.619Z,89.50
2018-11-14T11:55:55.833Z,88.90
2018-11-14T11:58:24.884Z,88.80
2018-11-14T12:00:55.173Z,88.70
2018-11-14T12:03:30.025Z,89.70
2018-11-14T12:06:00.135Z,90.60
2018-11-14T12:08:31.692Z,90.90
2018-11-14T12:11:02.443Z,91.30
2018-11-14T12:13:32.129Z,91.40
2018-11-14T12:16:01.133Z,91.90
2018-11-14T12:18:30.740Z,91.80
2018-11-14T12:20:59.914Z,92.70
2018-11-14T12:23:31.930Z,92.90
2018-11-14T12:26:00.985Z,92.60
2018-11-14T12:28:30.185Z,93.10
2018-11-14T12:30:59.403Z,93.00
2018-11-14T12:33:29.077Z,92.80
2018-11-14T12:35:58.096Z,92.30
2018-11-14T12:38:27.157Z,92.20
2018-11-14T12:40:57.454Z,92.20
2018-11-14T12:43:28.717Z,92.10
2018-11-14T12:45:59.499Z,92.50
2018-11-14T12:48:29.251Z,92.20
2018-11-14T12:50:59.796Z,92.40
2018-11-14T12:53:29.955Z,92.60
2018-11-14T12:56:00.075Z,92.80
2018-11-14T12:58:30.409Z,92.50
2018-11-14T13:01:00.006Z,93.00
2018-11-14T13:03:30.041Z,92.90
2018-11-14T13:06:02.155Z,94.00
2018-11-14T13:08:32.048Z,94.00
2018-11-14T13:11:03.603Z,94.20
2018-11-14T13:13:39.351Z,94.30
2018-11-14T13:16:08.490Z,94.30
2018-11-14T13:18:38.185Z,94.60
2018-11-14T13:21:07.836Z,94.20
2018-11-14T13:23:36.935Z,94.30
2018-11-14T13:26:08.245Z,94.30
2018-11-14T13:28:44.380Z,94.30
2018-11-14T13:31:13.457Z,94.30
2018-11-14T13:33:43.996Z,93.80
2018-11-14T13:36:13.861Z,93.30
2018-11-14T13:38:43.440Z,93.30
2018-11-14T13:41:13.508Z,94.30
2018-11-14T13:43:43.153Z,94.70
2018-11-14T13:46:12.962Z,94.60
2018-11-14T13:48:45.473Z,94.70
2018-11-14T13:51:17.712Z,94.80
2018-11-14T13:53:48.927Z,95.10
2018-11-14T13:56:22.849Z,95.40
2018-11-14T13:58:57.580Z,95.60
2018-11-14T14:01:38.103Z,95.50
2018-11-14T14:04:11.189Z,95.50
2018-11-14T14:06:42.377Z,95.90
2018-11-14T14:09:13.161Z,96.10
2018-11-14T14:11:42.743Z,95.80
2018-11-14T14:14:16.731Z,96.10
2018-11-14T14:16:46.000Z,96.20
2018-11-14T14:19:16.782Z,96.40
2018-11-14T14:21:45.596Z,96.60
2018-11-14T14:24:15.298Z,96.90
2018-11-14T14:26:44.067Z,96.90
2018-11-14T14:29:13.776Z,96.90
2018-11-14T14:31:42.559Z,97.00
2018-11-14T14:34:11.333Z,97.10
2018-11-14T14:36:40.087Z,96.90
2018-11-14T14:39:10.168Z,97.00
2018-11-14T14:41:38.924Z,96.90
2018-11-14T14:44:07.675Z,96.80
2018-11-14T14:46:36.521Z,96.50
2018-11-14T14:49:05.395Z,96.20
2018-11-14T14:51:34.117Z,96.60
2018-11-14T14:54:02.892Z,96.50
2018-11-14T14:56:31.907Z,96.10
2018-11-14T14:59:00.556Z,96.30
2018-11-14T15:01:29.325Z,96.40
2018-11-14T15:03:58.180Z,96.50
2018-11-14T15:06:26.913Z,96.70
2018-11-14T15:08:55.580Z,96.90
2018-11-14T15:11:24.845Z,97.20
2018-11-14T15:13:53.574Z,97.00
2018-11-14T15:16:22.304Z,96.70
2018-11-14T15:18:51.068Z,96.90
2018-11-14T15:21:19.841Z,96.80
2018-11-14T15:23:48.578Z,96.90
2018-11-14T15:26:17.545Z,97.20
2018-11-14T15:28:46.424Z,97.00
2018-11-14T15:31:15.099Z,96.80
2018-11-14T15:33:43.885Z,96.90
2018-11-14T15:36:12.648Z,97.10
2018-11-14T15:38:41.401Z,97.10
2018-11-14T15:41:10.193Z,96.80
2018-11-14T15:43:39.862Z,96.80
2018-11-14T15:46:08.675Z,96.50
2018-11-14T15:48:38.558Z,96.80
2018-11-14T15:51:07.309Z,96.90
2018-11-14T15:53:36.145Z,96.60
2018-11-14T15:56:05.067Z,96.80
2018-11-14T15:58:34.050Z,96.90
2018-11-14T16:01:02.929Z,96.60
2018-11-14T16:03:31.782Z,96.80
2018-11-14T16:06:00.600Z,96.50
2018-11-14T16:08:29.380Z,96.60
2018-11-14T16:10:58.543Z,96.40
2018-11-14T16:13:27.452Z,96.10
2018-11-14T16:15:57.070Z,95.90
2018-11-14T16:18:25.949Z,95.70
2018-11-14T16:20:54.751Z,96.00
2018-11-14T16:23:23.612Z,95.30
2018-11-14T16:25:52.529Z,95.40
2018-11-14T16:28:21.318Z,95.60
2018-11-14T16:30:50.198Z,95.50
2018-11-14T16:33:19.091Z,95.50
2018-11-14T16:35:47.812Z,95.40
2018-11-14T16:38:16.657Z,95.40
2018-11-14T16:40:45.399Z,95.10
2018-11-14T16:43:14.310Z,95.10
2018-11-14T16:45:43.699Z,95.00
2018-11-14T16:48:12.546Z,94.70
2018-11-14T16:50:41.369Z,94.90
2018-11-14T16:53:10.198Z,95.00
2018-11-14T16:55:39.128Z,95.10
2018-11-14T16:58:07.878Z,95.50
2018-11-14T17:00:36.864Z,95.30
2018-11-14T17:03:05.756Z,95.20
2018-11-14T17:05:34.621Z,95.10
2018-11-14T17:08:04.315Z,95.00
2018-11-14T17:10:33.062Z,95.10
2018-11-14T17:13:02.370Z,95.30
2018-11-14T17:15:31.167Z,95.50
2018-11-14T17:18:00.843Z,95.30
2018-11-14T17:20:29.714Z,94.90
2018-11-14T17:22:58.598Z,94.90
2018-11-14T17:25:27.448Z,94.70
2018-11-14T17:27:56.266Z,94.60
2018-11-14T17:30:27.266Z,94.50
2018-11-14T17:32:56.864Z,94.70
2018-11-14T17:35:25.699Z,95.00
2018-11-14T17:37:54.528Z,94.70
2018-11-14T17:40:26.413Z,94.70
2018-11-14T17:42:55.431Z,94.70
2018-11-14T17:45:28.073Z,94.80
2018-11-14T17:47:57.564Z,94.90
2018-11-14T17:50:28.772Z,94.90
2018-11-14T17:52:58.507Z,94.90
2018-11-14T17:55:27.372Z,94.80
2018-11-14T17:57:56.801Z,95.00
2018-11-14T18:00:26.923Z,95.00
2018-11-14T18:02:56.429Z,95.20
2018-11-14T18:05:26.404Z,95.30
2018-11-14T18:07:55.580Z,95.40
2018-11-14T18:10:25.618Z,95.50
2018-11-14T18:12:55.543Z,95.40
2018-11-14T18:15:24.376Z,95.10
2018-11-14T18:17:53.928Z,95.20
2018-11-14T18:20:25.071Z,95.40
2018-11-14T18:22:54.475Z,95.40
2018-11-14T18:25:23.342Z,95.10
2018-11-14T18:27:52.999Z,95.20
2018-11-14T18:30:24.699Z,95.10
2018-11-14T18:32:55.267Z,95.20
2018-11-14T18:35:24.614Z,94.90
2018-11-14T18:37:55.177Z,95.00
2018-11-14T18:40:25.370Z,95.00
2018-11-14T18:42:54.455Z,95.60
2018-11-14T18:45:25.823Z,95.40
2018-11-14T18:47:55.515Z,95.30
2018-11-14T18:50:24.973Z,95.20
2018-11-14T18:52:53.895Z,95.40
2018-11-14T18:55:23.897Z,95.20
2018-11-14T18:57:52.796Z,95.00
2018-11-14T19:00:23.134Z,95.20
2018-11-14T19:02:52.015Z,95.20
2018-11-14T19:05:21.127Z,95.20
2018-11-14T19:07:50.602Z,95.40
2018-11-14T19:10:21.225Z,95.40
2018-11-14T19:12:50.705Z,95.40
2018-11-14T19:15:20.866Z,95.40
2018-11-14T19:17:49.650Z,95.40
2018-11-14T19:20:20.080Z,95.30
2018-11-14T19:22:49.027Z,95.20
2018-11-14T19:25:19.582Z,95.00
2018-11-14T19:27:48.845Z,95.10
2018-11-14T19:30:19.120Z,95.10
2018-11-14T19:32:49.165Z,95.00
2018-11-14T19:35:18.169Z,95.10
2018-11-14T19:37:48.214Z,95.10
2018-11-14T19:40:18.986Z,94.90
2018-11-14T19:42:48.807Z,95.10
2018-11-14T19:45:19.348Z,95.00
2018-11-14T19:47:48.265Z,95.30
2018-11-14T19:50:19.498Z,95.20
2018-11-14T19:52:48.566Z,95.40
2018-11-14T19:55:18.811Z,95.40
2018-11-14T19:57:48.334Z,94.80
2018-11-14T20:00:20.629Z,94.60
2018-11-14T20:02:49.419Z,94.90
2018-11-14T20:05:18.836Z,94.80
2018-11-14T20:07:47.574Z,94.60
2018-11-14T20:10:20.717Z,94.70
2018-11-14T20:12:50.090Z,94.90
2018-11-14T20:15:36.524Z,95.10
2018-11-14T20:18:05.840Z,95.10
2018-11-14T20:20:36.136Z,95.30
2018-11-14T20:23:05.154Z,95.00
2018-11-14T20:25:34.216Z,95.40
2018-11-14T20:28:03.519Z,95.10
2018-11-14T20:30:33.860Z,94.90
2018-11-14T20:33:04.201Z,95.00
2018-11-14T20:35:33.829Z,94.60
2018-11-14T20:38:02.657Z,94.90
2018-11-14T20:40:32.999Z,95.50
2018-11-14T20:43:02.042Z,95.30
2018-11-14T20:45:32.236Z,95.30
2018-11-14T20:48:01.023Z,95.20
2018-11-14T20:50:29.833Z,95.70
2018-11-14T20:53:01.249Z,95.70
2018-11-14T20:55:30.416Z,95.60
2018-11-14T20:57:59.409Z,95.50
2018-11-14T21:00:29.642Z,95.30
2018-11-14T21:02:58.478Z,95.30
2018-11-14T21:05:28.046Z,95.00
2018-11-14T21:07:56.963Z,95.10
2018-11-14T21:10:27.133Z,95.30
2018-11-14T21:12:56.116Z,95.50
2018-11-14T21:15:26.262Z,95.60
2018-11-14T21:17:55.773Z,95.60
2018-11-14T21:20:24.490Z,95.70
2018-11-14T21:22:53.230Z,96.00
2018-11-14T21:25:23.009Z,96.10
2018-11-14T21:27:52.323Z,96.30
2018-11-14T21:30:22.364Z,96.40
2018-11-14T21:32:51.098Z,96.50
2018-11-14T21:35:22.519Z,96.40
2018-11-14T21:37:52.543Z,96.50
2018-11-14T21:40:21.352Z,96.60
2018-11-14T21:42:50.159Z,96.30
2018-11-14T21:45:20.214Z,96.30
2018-11-14T21:47:54.912Z,96.10
2018-11-14T21:50:24.851Z,96.10
2018-11-14T21:52:53.560Z,95.90
2018-11-14T21:55:22.290Z,95.90
2018-11-14T21:57:51.048Z,96.00
2018-11-14T22:00:21.049Z,95.80
2018-11-14T22:02:51.203Z,95.70
2018-11-14T22:05:19.888Z,95.60
2018-11-14T22:07:48.879Z,95.50
2018-11-14T22:10:18.864Z,95.50
2018-11-14T22:12:48.017Z,95.50
2018-11-14T22:15:18.373Z,95.30
2018-11-14T22:17:47.637Z,95.60
2018-11-14T22:20:17.660Z,95.80
2018-11-14T22:22:46.889Z,95.90
2018-11-14T22:25:17.020Z,95.90
2018-11-14T22:27:45.820Z,96.00
2018-11-14T22:30:17.970Z,96.10
2018-11-14T22:32:46.764Z,96.10
2018-11-14T22:35:16.725Z,96.00
2018-11-14T22:37:45.407Z,96.00
2018-11-14T22:40:15.891Z,96.20
2018-11-14T22:42:45.107Z,96.30
2018-11-14T22:45:16.055Z,96.40
2018-11-14T22:47:45.171Z,96.40
2018-11-14T22:50:15.249Z,96.10
2018-11-14T22:52:44.619Z,96.20
2018-11-14T22:55:14.487Z,96.00
2018-11-14T22:57:43.815Z,96.10
2018-11-14T23:00:22.240Z,96.10
2018-11-14T23:02:52.166Z,96.10
2018-11-14T23:05:20.995Z,95.80
2018-11-14T23:07:51.103Z,95.60
2018-11-14T23:10:20.764Z,95.50
2018-11-14T23:12:49.872Z,95.60
2018-11-14T23:15:19.466Z,95.60
2018-11-14T23:17:48.300Z,95.30
2018-11-14T23:20:17.451Z,95.20
2018-11-14T23:22:47.063Z,95.20
2018-11-14T23:25:16.179Z,95.40
2018-11-14T23:27:47.066Z,95.40
2018-11-14T23:30:16.848Z,95.20
2018-11-14T23:32:46.821Z,95.30
2018-11-14T23:35:16.425Z,95.50
2018-11-14T23:37:46.969Z,95.80
2018-11-14T23:40:15.706Z,95.60
2018-11-14T23:42:44.473Z,95.80
2018-11-14T23:45:14.440Z,95.80
2018-11-14T23:47:43.975Z,95.90
2018-11-14T23:50:15.604Z,96.00
2018-11-14T23:52:45.262Z,96.20
2018-11-14T23:55:14.506Z,96.20
2018-11-14T23:57:43.196Z,96.40
